Time;durP1;ratioP1;P1;durP2;ratioP2;P2;SDS_P1;SDS_P2;PMS_P1;PMS_P2;Temp;Humidity;BMP_temperature;BMP_pressure;BME280_temperature;BME280_humidity;BME280_pressure;Samples;Min_cycle;Max_cycle;Signal;HPM_P1;HPM_P2
2023/06/30 00:01:39;;;;;;;8.45;7.65;;;18.80;99.90;;;;;;5055610;28;20198;-72
2023/06/30 00:04:06;;;;;;;8.98;7.03;;;18.80;99.90;;;;;;5055278;28;20201;-72
2023/06/30 00:06:32;;;;;;;7.53;6.78;;;18.90;99.90;;;;;;5054893;28;20221;-73
2023/06/30 00:08:59;;;;;;;9.35;7.15;;;18.90;99.90;;;;;;5055043;28;20202;-73
2023/06/30 00:11:27;;;;;;;7.70;7.00;;;18.80;99.90;;;;;;5055014;28;20202;-72
2023/06/30 00:13:55;;;;;;;7.57;6.88;;;18.70;99.90;;;;;;5055230;28;20247;-73
2023/06/30 00:16:22;;;;;;;8.75;7.75;;;18.60;99.90;;;;;;5055107;28;20201;-72
2023/06/30 00:18:48;;;;;;;7.57;6.82;;;18.60;99.90;;;;;;5055219;28;20198;-73
2023/06/30 00:21:15;;;;;;;7.78;6.97;;;18.50;99.90;;;;;;5054987;28;20263;-72
2023/06/30 00:23:42;;;;;;;12.65;7.47;;;18.40;99.90;;;;;;5054757;28;20220;-72
2023/06/30 00:26:08;;;;;;;10.57;7.60;;;18.40;99.90;;;;;;5055064;28;20206;-72
2023/06/30 00:28:36;;;;;;;8.65;7.85;;;18.30;99.90;;;;;;5054946;28;20201;-72
2023/06/30 00:31:03;;;;;;;8.90;8.15;;;18.30;99.90;;;;;;5054870;28;20209;-72
2023/06/30 00:33:30;;;;;;;10.55;7.72;;;18.30;99.90;;;;;;5054773;28;20204;-72
2023/06/30 00:35:56;;;;;;;9.40;8.05;;;18.20;99.90;;;;;;5053457;28;20256;-72
2023/06/30 00:38:23;;;;;;;9.38;7.28;;;18.20;99.90;;;;;;5054572;28;20209;-72
2023/06/30 00:40:50;;;;;;;8.05;7.25;;;18.20;99.90;;;;;;5054827;28;20251;-71
2023/06/30 00:43:16;;;;;;;9.00;8.10;;;18.20;99.90;;;;;;5054631;28;20198;-71
2023/06/30 00:45:44;;;;;;;7.95;7.22;;;18.10;99.90;;;;;;5054677;28;20668;-71
2023/06/30 00:48:12;;;;;;;9.55;8.75;;;18.10;99.90;;;;;;5054389;28;20275;-74
2023/06/30 00:50:38;;;;;;;9.35;8.52;;;18.10;99.90;;;;;;5054460;28;20205;-73
2023/06/30 00:53:06;;;;;;;8.80;8.00;;;18.20;99.90;;;;;;5054305;28;20227;-74
2023/06/30 00:55:33;;;;;;;8.73;7.80;;;18.10;99.90;;;;;;5054305;28;20620;-73
2023/06/30 00:57:59;;;;;;;8.75;7.43;;;18.10;99.90;;;;;;5054241;28;20251;-74
2023/06/30 01:00:26;;;;;;;8.93;8.02;;;18.00;99.90;;;;;;5054453;28;20243;-74
2023/06/30 01:03:06;;;;;;;9.15;8.30;;;18.00;99.90;;;;;;5054274;28;20256;-73
2023/06/30 01:05:41;;;;;;;9.25;8.35;;;17.90;99.90;;;;;;5054109;28;20205;-74
2023/06/30 01:08:16;;;;;;;9.18;7.82;;;17.90;99.90;;;;;;5054243;28;20239;-73
2023/06/30 01:10:44;;;;;;;9.32;8.23;;;17.90;99.90;;;;;;5054213;28;20209;-73
2023/06/30 01:13:13;;;;;;;9.05;7.82;;;17.90;99.90;;;;;;5054132;28;20198;-74
2023/06/30 01:15:41;;;;;;;8.73;7.78;;;17.90;99.90;;;;;;5053894;28;20260;-73
2023/06/30 01:18:11;;;;;;;9.45;8.15;;;17.90;99.90;;;;;;5053819;28;20604;-74
2023/06/30 01:20:40;;;;;;;10.40;8.68;;;17.90;99.90;;;;;;5054025;28;20197;-73
2023/06/30 01:23:10;;;;;;;9.07;8.27;;;17.90;99.90;;;;;;5053858;28;20221;-74
2023/06/30 01:25:37;;;;;;;9.25;8.45;;;17.80;99.90;;;;;;5053785;28;20569;-74
2023/06/30 01:28:05;;;;;;;9.07;8.10;;;17.80;99.90;;;;;;5053579;28;20750;-73
2023/06/30 01:30:32;;;;;;;8.85;8.00;;;17.80;99.90;;;;;;5053542;28;20566;-74
2023/06/30 01:33:00;;;;;;;9.07;8.27;;;17.90;99.90;;;;;;5053773;28;20244;-74
2023/06/30 01:35:29;;;;;;;9.05;8.15;;;17.90;99.90;;;;;;5053660;28;20566;-73
2023/06/30 01:37:56;;;;;;;8.25;7.55;;;17.80;99.90;;;;;;5053478;28;20324;-74
2023/06/30 01:40:23;;;;;;;8.80;7.80;;;17.90;99.90;;;;;;5053423;28;20657;-73
2023/06/30 01:42:54;;;;;;;8.85;8.05;;;18.00;99.90;;;;;;5053372;28;20229;-73
2023/06/30 01:45:21;;;;;;;9.40;8.38;;;18.10;99.90;;;;;;5053362;28;20202;-73
2023/06/30 01:47:47;;;;;;;9.27;8.48;;;18.10;99.90;;;;;;5052756;28;20347;-73
2023/06/30 01:50:15;;;;;;;9.88;8.88;;;18.00;99.90;;;;;;5053146;28;20589;-73
2023/06/30 01:52:43;;;;;;;8.63;7.93;;;17.90;99.90;;;;;;5053222;28;20746;-73
2023/06/30 01:55:10;;;;;;;9.43;8.63;;;17.80;99.90;;;;;;5053054;28;20719;-73
2023/06/30 01:57:37;;;;;;;9.23;8.43;;;17.70;99.90;;;;;;5053072;28;20313;-73
2023/06/30 02:00:05;;;;;;;9.13;8.20;;;17.70;99.90;;;;;;5053299;28;20202;-71
2023/06/30 02:02:31;;;;;;;8.93;8.13;;;17.70;99.90;;;;;;5053212;28;20233;-73
2023/06/30 02:04:58;;;;;;;9.07;8.20;;;17.50;99.90;;;;;;5053058;28;20201;-73
2023/06/30 02:07:25;;;;;;;9.25;8.43;;;17.50;99.90;;;;;;5052844;28;20697;-73
2023/06/30 02:09:53;;;;;;;10.05;8.98;;;17.40;99.90;;;;;;5053184;28;20657;-73
2023/06/30 02:12:19;;;;;;;10.27;9.35;;;17.30;99.90;;;;;;5053171;28;20206;-73
2023/06/30 02:14:46;;;;;;;9.57;8.68;;;17.10;99.90;;;;;;5053203;28;20258;-74
2023/06/30 02:17:13;;;;;;;9.93;8.93;;;17.10;99.90;;;;;;5053136;28;20201;-74
2023/06/30 02:19:39;;;;;;;11.07;9.98;;;17.20;99.90;;;;;;5052901;28;20202;-74
2023/06/30 02:22:06;;;;;;;9.95;8.95;;;17.00;99.90;;;;;;5052752;28;20723;-74
2023/06/30 02:24:33;;;;;;;10.35;9.23;;;17.00;99.90;;;;;;5052711;28;20198;-73
2023/06/30 02:27:01;;;;;;;10.40;8.98;;;16.90;99.90;;;;;;5052888;28;20627;-74
2023/06/30 02:29:27;;;;;;;11.93;10.52;;;16.90;99.90;;;;;;5052885;28;20198;-74
2023/06/30 02:31:54;;;;;;;10.93;9.88;;;16.90;99.90;;;;;;5052657;28;20669;-73
2023/06/30 02:34:20;;;;;;;11.13;10.10;;;16.90;99.90;;;;;;5052888;28;20193;-74
2023/06/30 02:36:48;;;;;;;10.82;9.68;;;16.90;99.90;;;;;;5052623;28;20248;-74
2023/06/30 02:39:15;;;;;;;10.48;9.48;;;16.80;99.90;;;;;;5052538;28;20735;-74
2023/06/30 02:41:41;;;;;;;10.85;9.75;;;16.90;99.90;;;;;;5052794;28;20255;-74
2023/06/30 02:44:09;;;;;;;11.65;10.05;;;16.90;99.90;;;;;;5052758;28;20206;-73
2023/06/30 02:46:36;;;;;;;11.95;10.68;;;16.80;99.90;;;;;;5052700;28;20251;-73
2023/06/30 02:49:02;;;;;;;11.75;10.55;;;16.80;99.90;;;;;;5052551;28;20283;-74
2023/06/30 02:51:29;;;;;;;11.57;10.57;;;16.70;99.90;;;;;;5052548;28;20322;-73
2023/06/30 02:53:56;;;;;;;11.32;10.23;;;16.80;99.90;;;;;;5052418;28;20247;-73
2023/06/30 02:56:22;;;;;;;11.85;10.00;;;16.80;99.90;;;;;;5052532;28;20230;-74
2023/06/30 02:58:49;;;;;;;10.88;9.98;;;16.90;99.90;;;;;;5053004;28;20209;-74
2023/06/30 03:01:20;;;;;;;12.32;10.43;;;16.80;99.90;;;;;;5056246;28;20743;-74
2023/06/30 03:03:47;;;;;;;11.63;10.43;;;16.70;99.90;;;;;;5056494;28;20197;-74
2023/06/30 03:06:13;;;;;;;12.05;10.80;;;16.70;99.90;;;;;;5056583;28;20645;-74
2023/06/30 03:08:40;;;;;;;11.90;10.00;;;16.60;99.90;;;;;;5056475;28;20287;-74
2023/06/30 03:11:06;;;;;;;11.40;10.30;;;16.60;99.90;;;;;;5056526;28;20194;-74
2023/06/30 03:13:33;;;;;;;12.38;10.27;;;16.50;99.90;;;;;;5056232;28;20658;-74
2023/06/30 03:16:00;;;;;;;15.38;10.10;;;16.40;99.90;;;;;;5056327;28;20255;-74
2023/06/30 03:18:28;;;;;;;13.38;10.90;;;16.50;99.90;;;;;;5056227;28;20202;-74
2023/06/30 03:20:54;;;;;;;12.13;10.90;;;16.40;99.90;;;;;;5056062;28;20728;-74
2023/06/30 03:23:21;;;;;;;13.13;11.82;;;16.50;99.90;;;;;;5056277;28;20198;-75
2023/06/30 03:25:48;;;;;;;12.38;11.27;;;16.40;99.90;;;;;;5056100;28;20232;-74
2023/06/30 03:28:14;;;;;;;13.48;11.93;;;16.50;99.90;;;;;;5055963;28;20229;-73
2023/06/30 03:30:41;;;;;;;12.70;11.50;;;16.40;99.90;;;;;;5056015;28;20255;-74
2023/06/30 03:33:07;;;;;;;12.05;10.80;;;16.40;99.90;;;;;;5055834;28;20259;-74
2023/06/30 03:35:35;;;;;;;12.20;11.10;;;16.40;99.90;;;;;;5055755;28;20209;-74
2023/06/30 03:38:02;;;;;;;14.00;11.57;;;16.40;99.90;;;;;;5055916;28;20189;-74
2023/06/30 03:40:29;;;;;;;11.85;10.82;;;16.50;99.90;;;;;;5055841;28;20242;-74
2023/06/30 03:42:55;;;;;;;12.82;11.38;;;16.50;99.90;;;;;;5055863;28;20293;-74
2023/06/30 03:45:22;;;;;;;12.73;11.50;;;16.50;99.90;;;;;;5055860;28;20251;-74
2023/06/30 03:47:48;;;;;;;13.05;11.68;;;16.40;99.90;;;;;;5055550;28;20213;-74
2023/06/30 03:50:15;;;;;;;13.52;11.52;;;16.40;99.90;;;;;;5055801;28;20202;-74
2023/06/30 03:52:43;;;;;;;12.05;10.73;;;16.40;99.90;;;;;;5055513;28;20723;-75
2023/06/30 03:55:10;;;;;;;11.65;10.45;;;16.40;99.90;;;;;;5055280;28;20283;-75
2023/06/30 03:57:36;;;;;;;12.57;10.80;;;16.40;99.90;;;;;;5055373;28;20194;-75
2023/06/30 04:00:03;;;;;;;11.73;10.63;;;16.60;99.90;;;;;;5055542;28;20202;-75
2023/06/30 04:02:30;;;;;;;11.25;10.15;;;16.50;99.90;;;;;;5055218;28;20667;-74
2023/06/30 04:04:56;;;;;;;13.07;10.63;;;16.50;99.90;;;;;;5055511;28;20256;-75
2023/06/30 04:07:23;;;;;;;11.35;9.90;;;16.50;99.90;;;;;;5055338;28;20248;-74
2023/06/30 04:09:51;;;;;;;11.95;10.95;;;16.50;99.90;;;;;;5055045;28;20206;-74
2023/06/30 04:12:18;;;;;;;12.18;11.07;;;16.60;99.90;;;;;;5055272;28;20229;-74
2023/06/30 04:14:45;;;;;;;11.93;10.82;;;16.70;99.90;;;;;;5054820;28;20198;-75
2023/06/30 04:17:11;;;;;;;12.13;10.43;;;16.80;99.90;;;;;;5054945;28;20252;-75
2023/06/30 04:19:38;;;;;;;11.82;10.63;;;16.80;99.90;;;;;;5054871;28;20653;-75
2023/06/30 04:22:05;;;;;;;11.23;10.23;;;16.80;99.90;;;;;;5055077;28;20201;-74
2023/06/30 04:24:32;;;;;;;11.27;10.18;;;16.80;99.90;;;;;;5055006;28;20251;-75
2023/06/30 04:27:00;;;;;;;11.55;10.35;;;16.80;99.90;;;;;;5054743;28;20201;-75
2023/06/30 04:29:27;;;;;;;12.15;10.88;;;16.90;99.90;;;;;;5054731;28;20271;-76
2023/06/30 04:31:53;;;;;;;12.50;10.07;;;17.00;99.90;;;;;;5054919;28;20256;-74
2023/06/30 04:34:21;;;;;;;12.05;10.43;;;17.10;99.90;;;;;;5054816;28;20201;-74
2023/06/30 04:36:49;;;;;;;11.40;10.32;;;17.20;99.90;;;;;;5054692;28;20201;-74
2023/06/30 04:39:15;;;;;;;10.80;9.75;;;17.20;99.90;;;;;;5054268;28;20649;-74
2023/06/30 04:41:42;;;;;;;11.65;10.45;;;17.30;99.90;;;;;;5054612;28;20198;-73
2023/06/30 04:44:10;;;;;;;11.15;9.77;;;17.30;99.90;;;;;;5054576;28;20205;-73
2023/06/30 04:46:37;;;;;;;11.88;10.20;;;17.40;99.90;;;;;;5054546;28;20201;-73
2023/06/30 04:49:04;;;;;;;11.48;10.23;;;17.50;99.90;;;;;;5054192;28;20222;-74
2023/06/30 04:51:31;;;;;;;12.63;11.43;;;17.50;99.90;;;;;;5054433;28;20197;-73
2023/06/30 04:53:57;;;;;;;11.23;10.25;;;17.60;99.90;;;;;;5054262;28;20256;-73
2023/06/30 04:56:25;;;;;;;11.57;10.25;;;17.70;99.90;;;;;;5054266;28;20240;-73
2023/06/30 04:58:52;;;;;;;11.18;10.00;;;17.90;99.90;;;;;;5054070;28;20198;-72
2023/06/30 05:01:20;;;;;;;10.60;9.70;;;18.00;99.90;;;;;;5054237;28;20597;-73
2023/06/30 05:03:47;;;;;;;10.82;9.70;;;18.10;99.90;;;;;;5054207;28;20267;-72
2023/06/30 05:06:14;;;;;;;12.15;10.40;;;18.20;99.90;;;;;;5054058;28;20205;-73
2023/06/30 05:08:41;;;;;;;11.15;10.07;;;18.30;99.90;;;;;;5054001;28;20275;-74
2023/06/30 05:11:07;;;;;;;10.75;9.65;;;18.40;99.90;;;;;;5053921;28;20202;-73
2023/06/30 05:13:34;;;;;;;11.45;10.27;;;18.50;99.90;;;;;;5054078;28;20261;-73
2023/06/30 05:16:00;;;;;;;11.40;10.30;;;18.50;99.90;;;;;;5053685;28;20609;-73
2023/06/30 05:18:28;;;;;;;10.73;9.73;;;18.50;99.90;;;;;;5053919;28;20259;-73
2023/06/30 05:20:55;;;;;;;14.25;10.85;;;18.40;99.90;;;;;;5053763;28;20661;-74
2023/06/30 05:23:23;;;;;;;11.43;10.32;;;18.50;99.90;;;;;;5052833;28;20288;-74
2023/06/30 05:25:50;;;;;;;12.20;11.07;;;18.60;99.90;;;;;;5053708;28;20197;-74
2023/06/30 05:28:17;;;;;;;11.57;10.02;;;18.60;99.90;;;;;;5053774;28;20295;-74
2023/06/30 05:30:43;;;;;;;10.95;10.05;;;18.70;99.90;;;;;;5063886;28;20193;-73
2023/06/30 05:33:10;;;;;;;11.50;9.95;;;18.80;99.90;;;;;;5073469;28;20193;-74
2023/06/30 05:35:38;;;;;;;10.60;9.57;;;18.80;99.90;;;;;;5073417;28;20197;-73
2023/06/30 05:38:04;;;;;;;13.20;10.55;;;18.90;99.90;;;;;;5073448;28;20287;-74
2023/06/30 05:40:31;;;;;;;11.95;10.52;;;19.00;99.90;;;;;;5073239;28;20645;-74
2023/06/30 05:42:58;;;;;;;12.30;11.00;;;19.10;99.90;;;;;;5073391;28;20247;-73
2023/06/30 05:45:25;;;;;;;12.48;9.98;;;19.20;99.90;;;;;;5073174;28;20205;-73
2023/06/30 05:47:52;;;;;;;14.10;10.63;;;19.20;99.90;;;;;;5073051;28;20197;-73
2023/06/30 05:50:21;;;;;;;11.50;10.40;;;19.30;99.90;;;;;;5073092;28;20274;-73
2023/06/30 05:52:49;;;;;;;11.02;10.00;;;19.40;99.90;;;;;;5072953;28;20197;-75
2023/06/30 05:55:16;;;;;;;11.82;10.63;;;19.70;99.90;;;;;;5072856;28;20225;-73
2023/06/30 05:57:43;;;;;;;11.98;10.30;;;19.80;99.90;;;;;;5073140;28;20200;-73
2023/06/30 06:00:11;;;;;;;10.98;9.98;;;19.90;99.90;;;;;;5073041;28;20258;-74
2023/06/30 06:02:37;;;;;;;19.00;11.80;;;20.00;99.90;;;;;;5073081;28;20232;-74
2023/06/30 06:05:04;;;;;;;17.35;11.40;;;20.20;99.90;;;;;;5072919;28;20200;-74
2023/06/30 06:07:31;;;;;;;15.32;13.27;;;20.40;99.90;;;;;;5072770;28;20246;-73
2023/06/30 06:09:59;;;;;;;19.52;15.65;;;20.60;99.90;;;;;;5072929;28;20302;-72
2023/06/30 06:12:26;;;;;;;19.17;15.27;;;20.80;99.90;;;;;;5072905;28;20251;-72
2023/06/30 06:14:52;;;;;;;16.13;13.23;;;20.90;99.90;;;;;;5072948;28;20258;-74
2023/06/30 06:17:19;;;;;;;15.18;13.07;;;21.10;99.90;;;;;;5072852;28;20227;-74
2023/06/30 06:19:45;;;;;;;14.88;10.85;;;21.30;99.90;;;;;;5072904;28;20201;-73
2023/06/30 06:22:12;;;;;;;16.55;10.82;;;21.30;99.90;;;;;;5072601;28;20197;-73
2023/06/30 06:24:38;;;;;;;21.83;10.95;;;21.50;99.90;;;;;;5072534;28;20243;-73
2023/06/30 06:27:07;;;;;;;17.02;11.38;;;21.70;99.90;;;;;;5072808;28;20242;-73
2023/06/30 06:29:34;;;;;;;15.18;11.50;;;21.80;99.90;;;;;;5072574;28;20228;-73
2023/06/30 06:32:00;;;;;;;16.92;11.25;;;22.00;99.90;;;;;;5072585;28;20490;-73
2023/06/30 06:34:27;;;;;;;14.13;10.35;;;22.10;99.90;;;;;;5072409;28;20238;-73
2023/06/30 06:36:53;;;;;;;15.27;11.73;;;22.10;99.90;;;;;;5072410;28;20197;-73
2023/06/30 06:39:20;;;;;;;15.90;11.93;;;22.40;99.90;;;;;;5072665;28;20201;-73
2023/06/30 06:41:47;;;;;;;21.05;11.18;;;22.70;99.90;;;;;;5072450;28;20211;-73
2023/06/30 06:44:15;;;;;;;18.00;9.27;;;22.90;99.90;;;;;;5071511;28;20266;-74
2023/06/30 06:46:43;;;;;;;12.95;8.73;;;23.00;99.90;;;;;;5072582;28;20246;-75
2023/06/30 06:49:09;;;;;;;16.60;9.18;;;23.10;99.90;;;;;;5072385;28;20224;-74
2023/06/30 06:51:36;;;;;;;14.85;9.75;;;23.30;99.90;;;;;;5072469;28;20534;-75
2023/06/30 06:54:03;;;;;;;13.93;8.27;;;23.50;99.90;;;;;;5072542;28;20200;-73
2023/06/30 06:56:29;;;;;;;12.25;7.55;;;23.60;99.90;;;;;;5072456;28;20282;-73
2023/06/30 06:58:56;;;;;;;11.52;7.63;;;23.80;99.90;;;;;;5072535;28;20197;-74
2023/06/30 07:01:24;;;;;;;15.48;7.20;;;24.00;99.90;;;;;;5072591;28;20255;-74
2023/06/30 07:03:50;;;;;;;26.48;7.35;;;24.20;99.90;;;;;;5072404;28;20201;-73
2023/06/30 07:06:17;;;;;;;25.50;6.35;;;24.30;99.90;;;;;;5072557;28;20201;-73
2023/06/30 07:08:44;;;;;;;8.68;5.88;;;24.10;99.90;;;;;;5072408;28;20267;-73
2023/06/30 07:11:12;;;;;;;11.52;6.07;;;24.40;99.90;;;;;;5072358;28;20197;-73
2023/06/30 07:13:39;;;;;;;16.42;7.10;;;24.70;99.90;;;;;;5072399;28;20250;-73
2023/06/30 07:16:06;;;;;;;12.43;6.30;;;24.70;99.90;;;;;;5072254;28;20197;-73
2023/06/30 07:18:35;;;;;;;16.00;6.75;;;25.10;99.90;;;;;;5072547;28;20603;-74
2023/06/30 07:21:01;;;;;;;10.65;5.90;;;25.40;99.90;;;;;;5072392;28;20197;-74
2023/06/30 07:23:28;;;;;;;14.70;6.25;;;25.50;99.90;;;;;;5072478;28;20205;-74
2023/06/30 07:25:55;;;;;;;9.23;5.60;;;25.30;99.90;;;;;;5072280;28;20205;-75
2023/06/30 07:28:21;;;;;;;6.88;5.53;;;25.40;99.90;;;;;;5072332;28;20267;-73
2023/06/30 07:30:48;;;;;;;12.60;6.07;;;25.40;99.90;;;;;;5072148;28;20282;-73
2023/06/30 07:33:14;;;;;;;9.75;5.95;;;25.20;99.90;;;;;;5072267;28;20193;-73
2023/06/30 07:35:43;;;;;;;6.85;6.15;;;25.40;99.90;;;;;;5072264;28;20197;-73
2023/06/30 07:38:10;;;;;;;6.72;5.93;;;25.50;99.90;;;;;;5072282;28;20255;-75
2023/06/30 07:40:36;;;;;;;10.20;6.50;;;25.80;99.90;;;;;;5072118;28;20197;-75
2023/06/30 07:43:03;;;;;;;7.88;5.50;;;25.90;99.90;;;;;;5072260;28;20197;-75
2023/06/30 07:45:29;;;;;;;11.23;6.00;;;26.10;99.90;;;;;;5073398;28;20234;-73
2023/06/30 07:47:56;;;;;;;6.90;6.28;;;26.10;99.90;;;;;;5075883;28;20193;-75
2023/06/30 07:50:24;;;;;;;7.63;6.10;;;26.30;99.90;;;;;;5075595;28;20635;-74
2023/06/30 07:52:52;;;;;;;8.00;5.72;;;26.60;99.90;;;;;;5075449;28;20193;-74
2023/06/30 07:55:19;;;;;;;8.35;5.60;;;26.90;99.90;;;;;;5075567;28;20275;-74
2023/06/30 07:57:46;;;;;;;8.77;6.18;;;26.80;99.90;;;;;;5075258;28;20205;-74
2023/06/30 08:00:15;;;;;;;8.35;6.28;;;26.70;99.90;;;;;;5075652;28;20193;-74
2023/06/30 08:02:42;;;;;;;8.25;5.63;;;26.90;99.90;;;;;;5075377;28;20203;-73
2023/06/30 08:05:09;;;;;;;11.50;6.07;;;27.50;99.40;;;;;;5075376;28;20201;-73
2023/06/30 08:07:36;;;;;;;6.60;5.75;;;27.50;97.90;;;;;;5075295;28;20262;-73
2023/06/30 08:10:05;;;;;;;6.78;6.07;;;27.90;97.10;;;;;;5075154;28;20221;-73
2023/06/30 08:12:32;;;;;;;10.57;6.18;;;27.50;96.60;;;;;;5075103;28;20193;-73
2023/06/30 08:14:58;;;;;;;8.40;6.15;;;27.30;96.00;;;;;;5075076;28;20197;-73
2023/06/30 08:17:25;;;;;;;6.72;5.72;;;26.80;96.60;;;;;;5075177;28;20205;-73
2023/06/30 08:19:51;;;;;;;7.00;6.18;;;27.20;95.90;;;;;;5074919;28;20665;-73
2023/06/30 08:22:20;;;;;;;7.07;6.38;;;26.80;95.80;;;;;;5075016;28;20201;-73
2023/06/30 08:24:46;;;;;;;7.07;6.40;;;26.90;94.90;;;;;;5074753;28;20755;-74
2023/06/30 08:27:16;;;;;;;7.20;6.30;;;26.80;95.50;;;;;;5074914;28;20197;-74
2023/06/30 08:29:43;;;;;;;8.80;6.22;;;26.70;95.10;;;;;;5074847;28;20228;-74
2023/06/30 08:32:10;;;;;;;10.38;6.25;;;26.50;95.50;;;;;;5074990;28;20341;-73
2023/06/30 08:34:37;;;;;;;8.60;6.95;;;26.40;95.30;;;;;;5074864;28;20197;-74
2023/06/30 08:37:04;;;;;;;7.90;6.50;;;26.40;95.00;;;;;;5074734;28;20251;-74
2023/06/30 08:39:31;;;;;;;7.28;6.60;;;26.80;95.10;;;;;;5074486;28;20205;-74
2023/06/30 08:42:00;;;;;;;8.65;6.70;;;27.40;94.20;;;;;;5074786;28;20201;-73
2023/06/30 08:44:29;;;;;;;6.30;5.78;;;26.60;94.30;;;;;;5074605;28;20201;-73
2023/06/30 08:46:57;;;;;;;9.20;6.15;;;26.10;94.90;;;;;;5074538;28;20255;-73
2023/06/30 08:49:25;;;;;;;7.35;6.55;;;25.80;94.90;;;;;;5074380;28;20278;-74
2023/06/30 08:51:55;;;;;;;6.97;6.28;;;25.80;95.80;;;;;;5074572;28;20584;-74
2023/06/30 08:54:22;;;;;;;8.52;7.40;;;25.90;95.20;;;;;;5074895;28;20201;-74
2023/06/30 08:56:48;;;;;;;8.82;7.22;;;25.50;94.80;;;;;;5073309;28;20683;-74
2023/06/30 08:59:15;;;;;;;9.70;6.82;;;25.10;95.50;;;;;;5074413;28;20212;-74
2023/06/30 09:01:45;;;;;;;8.02;7.00;;;25.20;95.60;;;;;;5074188;28;20645;-74
2023/06/30 09:04:12;;;;;;;8.90;6.78;;;25.40;96.30;;;;;;5074106;28;20197;-74
2023/06/30 09:06:43;;;;;;;9.43;6.95;;;25.50;96.20;;;;;;5073971;28;20197;-75
2023/06/30 09:09:13;;;;;;;8.60;6.60;;;25.40;96.50;;;;;;5073677;28;20196;-74
2023/06/30 09:11:39;;;;;;;7.50;6.80;;;25.60;96.60;;;;;;5074067;28;20228;-75
2023/06/30 09:14:08;;;;;;;8.25;6.88;;;25.80;95.90;;;;;;5073850;28;20197;-76
2023/06/30 09:16:35;;;;;;;10.02;6.97;;;25.80;96.10;;;;;;5074135;28;20201;-74
2023/06/30 09:19:04;;;;;;;7.40;6.70;;;26.10;96.00;;;;;;5073598;28;20197;-74
2023/06/30 09:21:31;;;;;;;8.95;6.95;;;26.00;95.70;;;;;;5073594;28;20280;-74
2023/06/30 09:23:57;;;;;;;9.35;7.22;;;25.70;96.10;;;;;;5073402;28;20197;-75
2023/06/30 09:26:24;;;;;;;8.45;7.00;;;25.40;96.50;;;;;;5073682;28;20229;-74
2023/06/30 09:28:55;;;;;;;10.38;7.95;;;25.60;96.70;;;;;;5073740;28;20263;-74
2023/06/30 09:31:29;;;;;;;9.10;7.30;;;25.50;96.50;;;;;;5073349;28;20228;-75
2023/06/30 09:34:08;;;;;;;13.38;8.43;;;25.10;98.70;;;;;;5073516;28;20734;-74
2023/06/30 09:36:35;;;;;;;10.57;8.35;;;24.80;99.90;;;;;;5073261;28;20203;-76
2023/06/30 09:39:02;;;;;;;12.88;8.35;;;24.50;99.90;;;;;;5073625;28;20204;-75
2023/06/30 09:41:30;;;;;;;11.00;8.25;;;24.40;99.90;;;;;;5073483;28;20204;-74
2023/06/30 09:43:59;;;;;;;11.18;7.93;;;24.70;99.90;;;;;;5073214;28;20526;-74
2023/06/30 09:46:28;;;;;;;10.35;8.32;;;24.70;99.90;;;;;;5073538;28;20209;-74
2023/06/30 09:48:55;;;;;;;11.18;7.78;;;24.30;99.90;;;;;;5073530;28;20207;-75
2023/06/30 09:51:23;;;;;;;13.13;8.15;;;24.30;99.90;;;;;;5073339;28;20221;-74
2023/06/30 09:53:53;;;;;;;8.30;7.28;;;24.00;99.90;;;;;;5073065;28;20219;-74
2023/06/30 09:56:20;;;;;;;11.50;7.85;;;24.20;99.90;;;;;;5073093;28;20315;-75
2023/06/30 09:58:47;;;;;;;8.63;7.43;;;23.90;99.90;;;;;;5073210;28;20529;-74
2023/06/30 10:01:18;;;;;;;9.40;6.68;;;24.00;99.90;;;;;;5073418;28;20730;-74
2023/06/30 10:03:48;;;;;;;9.05;7.22;;;24.30;99.90;;;;;;5073288;28;20254;-73
2023/06/30 10:06:16;;;;;;;7.05;6.43;;;24.50;99.90;;;;;;5073162;28;20232;-74
2023/06/30 10:08:45;;;;;;;7.50;6.65;;;24.50;99.90;;;;;;5072737;28;20197;-75
2023/06/30 10:11:12;;;;;;;8.73;7.22;;;24.60;99.90;;;;;;5072862;28;20217;-74
2023/06/30 10:13:41;;;;;;;10.05;7.00;;;24.60;99.70;;;;;;5072965;28;20656;-75
2023/06/30 10:16:09;;;;;;;8.57;7.30;;;24.80;99.60;;;;;;5073070;28;20208;-74
2023/06/30 10:18:38;;;;;;;10.13;7.63;;;25.20;99.40;;;;;;5073066;28;20228;-74
2023/06/30 10:21:05;;;;;;;10.23;7.15;;;25.60;98.70;;;;;;5072978;28;20266;-74
2023/06/30 10:23:33;;;;;;;9.05;6.93;;;26.10;97.90;;;;;;5072936;28;20197;-74
2023/06/30 10:26:02;;;;;;;7.68;6.97;;;25.90;98.30;;;;;;5072766;28;20255;-74
2023/06/30 10:28:29;;;;;;;9.00;7.55;;;26.00;98.50;;;;;;5072909;28;20243;-74
2023/06/30 10:30:56;;;;;;;11.27;7.95;;;25.70;98.90;;;;;;5072794;28;20251;-74
2023/06/30 10:33:23;;;;;;;12.48;9.10;;;25.80;99.70;;;;;;5072774;28;20197;-74
2023/06/30 10:35:50;;;;;;;10.80;9.68;;;25.80;98.90;;;;;;5072579;28;20234;-74
2023/06/30 10:38:17;;;;;;;9.80;8.10;;;25.80;99.00;;;;;;5072570;28;20201;-74
2023/06/30 10:40:43;;;;;;;11.10;9.23;;;26.00;99.80;;;;;;5072967;28;20610;-74
2023/06/30 10:43:13;;;;;;;11.50;10.30;;;25.60;99.90;;;;;;5072870;28;20197;-74
2023/06/30 10:46:04;;;;;;;12.80;11.50;;;25.00;99.90;;;;;;5072591;28;20201;-74
2023/06/30 10:48:30;;;;;;;13.82;12.43;;;24.80;99.90;;;;;;5072695;28;20204;-74
2023/06/30 10:50:57;;;;;;;14.77;12.35;;;24.20;99.90;;;;;;5072366;28;20684;-74
2023/06/30 10:53:26;;;;;;;13.73;12.32;;;24.10;99.90;;;;;;5072379;28;20259;-74
2023/06/30 10:55:56;;;;;;;15.73;12.50;;;24.60;99.90;;;;;;5071827;28;20274;-74
2023/06/30 10:58:24;;;;;;;13.75;12.35;;;25.10;99.90;;;;;;5072329;28;20193;-75
2023/06/30 11:01:04;;;;;;;15.30;12.82;;;24.20;99.90;;;;;;5072364;28;20250;-74
2023/06/30 11:04:03;;;;;;;13.45;12.05;;;24.10;99.90;;;;;;5072255;28;20668;-75
2023/06/30 11:06:30;;;;;;;15.40;12.82;;;24.10;99.90;;;;;;5072138;28;20196;-74
2023/06/30 11:09:00;;;;;;;14.90;12.77;;;24.10;99.90;;;;;;5072253;28;20197;-74
2023/06/30 11:11:27;;;;;;;19.38;12.70;;;24.20;99.90;;;;;;5072203;28;20266;-75
2023/06/30 11:14:06;;;;;;;13.55;12.23;;;24.70;99.90;;;;;;5072223;28;20288;-74
2023/06/30 11:17:01;;;;;;;14.45;12.93;;;24.70;99.90;;;;;;5072111;28;20197;-75
2023/06/30 11:19:28;;;;;;;13.68;12.20;;;24.80;99.90;;;;;;5072176;28;20561;-76
2023/06/30 11:22:22;;;;;;;14.45;12.80;;;24.30;99.90;;;;;;5075957;28;20253;-75
2023/06/30 11:24:49;;;;;;;14.68;13.27;;;24.30;99.90;;;;;;5076274;28;20196;-74
2023/06/30 11:27:16;;;;;;;16.58;13.55;;;23.90;99.90;;;;;;5076142;28;20255;-72
2023/06/30 11:29:44;;;;;;;16.98;14.05;;;24.10;99.90;;;;;;5075979;28;20258;-72
2023/06/30 11:32:10;;;;;;;16.00;13.75;;;23.30;99.90;;;;;;5075931;28;20604;-74
2023/06/30 11:34:37;;;;;;;18.65;13.23;;;23.50;99.90;;;;;;5076019;28;20220;-74
2023/06/30 11:37:05;;;;;;;17.20;13.65;;;23.40;99.90;;;;;;5075663;28;20193;-73
2023/06/30 11:39:32;;;;;;;13.30;11.90;;;23.00;99.90;;;;;;5075825;28;20259;-74
2023/06/30 11:41:59;;;;;;;15.93;12.77;;;23.00;99.90;;;;;;5075775;28;20630;-73
2023/06/30 11:44:26;;;;;;;15.23;13.52;;;22.90;99.90;;;;;;5075613;28;20220;-74
2023/06/30 11:46:55;;;;;;;15.40;13.70;;;22.60;99.90;;;;;;5075692;28;20200;-74
2023/06/30 11:49:21;;;;;;;18.00;14.27;;;22.70;99.90;;;;;;5075522;28;20292;-74
2023/06/30 11:51:48;;;;;;;18.63;15.18;;;22.70;99.90;;;;;;5076410;28;20700;-74
2023/06/30 11:54:15;;;;;;;17.45;15.63;;;22.20;99.90;;;;;;5074762;28;20197;-74
2023/06/30 11:56:41;;;;;;;17.80;15.73;;;22.30;99.90;;;;;;5075214;28;20751;-73
2023/06/30 11:59:08;;;;;;;20.15;16.48;;;22.80;99.90;;;;;;5075187;28;20196;-75
2023/06/30 12:01:35;;;;;;;19.42;16.70;;;22.70;99.90;;;;;;5085970;28;20309;-75
2023/06/30 12:04:34;;;;;;;16.60;14.90;;;23.10;99.90;;;;;;5095287;28;20196;-74
2023/06/30 12:07:03;;;;;;;17.67;15.45;;;23.60;99.90;;;;;;5095426;28;20660;-74
2023/06/30 12:09:29;;;;;;;18.13;15.98;;;23.60;99.90;;;;;;5095542;28;20200;-74
2023/06/30 12:11:56;;;;;;;17.77;15.98;;;23.60;99.90;;;;;;5095198;28;20749;-74
2023/06/30 12:14:25;;;;;;;19.05;16.58;;;23.30;99.90;;;;;;5095254;28;20201;-79
2023/06/30 12:16:52;;;;;;;18.35;16.55;;;23.50;99.90;;;;;;5095139;28;20648;-75
2023/06/30 12:19:24;;;;;;;20.48;17.10;;;23.30;99.90;;;;;;5095555;28;20196;-76
2023/06/30 12:21:55;;;;;;;18.92;16.75;;;24.10;99.90;;;;;;5095391;28;20204;-75
2023/06/30 12:24:22;;;;;;;20.33;16.98;;;24.20;99.90;;;;;;5095184;28;20200;-73
2023/06/30 12:26:50;;;;;;;18.80;16.90;;;24.00;99.90;;;;;;5095130;28;20270;-78
2023/06/30 12:29:17;;;;;;;18.63;16.65;;;24.10;99.90;;;;;;5081232;28;20200;-75
2023/06/30 12:31:45;;;;;;;19.77;17.05;;;23.80;99.90;;;;;;5074478;28;20585;-76
2023/06/30 12:34:12;;;;;;;17.85;16.13;;;24.00;99.90;;;;;;5074819;28;20200;-75
2023/06/30 12:36:40;;;;;;;17.33;15.52;;;24.00;99.90;;;;;;5074707;28;20207;-79
2023/06/30 12:39:07;;;;;;;17.73;16.02;;;24.50;99.90;;;;;;5072791;28;20201;-74